Disclaimer

Please do not use the information listed here in-flight or in-navigation, as they are not provided to us by the airports but are provided by volunteers, so they might be outdated.

Search


Regions


Airport information page

Radio informations:
Melbourne Center - 122.4 MHz
Common traffic adv. frequency (CTAF) - 120.1 MHz

Airport informations:
Latitude: 20° 51' 52.00" S
Longitude: 115° 24' 22.00" E
Elevation: 26 feet - 8 meters
Operating hours: N/A
Operating agency: Private
Timezone: UTC+8
Fuel: Unknown fuel type or whether there is any fuel.

Runway information:
03/21 - 6234 x 98 feet< - >1900 x 30 meters

Recent METARs:
YBWX 181500Z AUTO 25017KT //// // ////// 23/20 Q1009
YBWX 181500Z AUTO 25017KT //// // ////// 23/20 Q1009
YBWX 181600Z AUTO 25016KT //// // ////// 23/20 Q1009

Airport on the map: